Springfield, New Jersey
Current Conditions -  °F | °C
As of 12:35 PM on Friday 19 Dec 2014 (Local Time) from KLDJ Reporting Station
Overcast Overcast  
Wind Chill:   Ceiling: 3700
Heat Index:   Visibility: 10mi
Dew Point: -4°   Wind: 13mph
Humidity: 54%   Direction: 330°NNW
Pressure: 30.07"   Gusts: 23mph
Location:  40.71°N, 74.31°W
Report Text: KLDJ 191735Z AUTO 33011G20KT 10SM OVC037 05/M04 A3007 RMK AO2 T00501037
Loading
Personal Weather Stations






























Interactive Weather Map New forecast layout! Learn more

10-Day Weather Forecast

Advertisements
Track Severe Weather on mobile